createdAt,value
2022-09-23T00:00:01.000Z,0
2022-09-23T00:01:03.540Z,0
2022-09-23T00:02:07.425Z,0
2022-09-23T00:03:11.102Z,0
2022-09-23T00:04:14.409Z,0
2022-09-23T00:05:17.542Z,0
2022-09-23T00:06:20.530Z,0
2022-09-23T00:07:23.711Z,0
2022-09-23T00:08:26.145Z,0
2022-09-23T00:09:29.678Z,0
2022-09-23T00:10:33.110Z,0
2022-09-23T00:11:36.530Z,0
2022-09-23T00:12:39.331Z,0
2022-09-23T00:13:41.665Z,0
2022-09-23T00:14:45.113Z,0
2022-09-23T00:15:48.565Z,0
2022-09-23T00:16:51.397Z,0
2022-09-23T00:17:55.234Z,0
2022-09-23T00:18:58.343Z,0
2022-09-23T00:20:02.123Z,0
2022-09-23T00:21:05.609Z,0
2022-09-23T00:22:08.773Z,0
2022-09-23T00:23:12.201Z,0
2022-09-23T00:24:14.831Z,0
2022-09-23T00:25:18.841Z,0
2022-09-23T00:26:21.071Z,0
2022-09-23T00:27:24.545Z,0
2022-09-23T00:28:27.716Z,0
2022-09-23T00:29:30.788Z,0
2022-09-23T00:30:33.875Z,0
2022-09-23T00:31:37.076Z,0
2022-09-23T00:32:40.176Z,0
2022-09-23T00:33:42.986Z,0
2022-09-23T00:34:45.844Z,0
2022-09-23T00:35:49.378Z,0
2022-09-23T00:36:52.181Z,0
2022-09-23T00:37:55.359Z,0
2022-09-23T00:38:58.706Z,0
2022-09-23T00:40:01.954Z,0
2022-09-23T00:41:04.979Z,0
2022-09-23T00:42:08.897Z,0
2022-09-23T00:43:11.414Z,0
2022-09-23T00:44:14.767Z,0
2022-09-23T00:45:18.219Z,0
2022-09-23T00:46:21.460Z,0
2022-09-23T00:47:25.492Z,0
2022-09-23T00:48:28.768Z,0
2022-09-23T00:49:31.853Z,0
2022-09-23T00:50:35.003Z,0
2022-09-23T00:51:38.289Z,0
2022-09-23T00:52:42.360Z,0
2022-09-23T00:53:45.227Z,0
2022-09-23T00:54:48.027Z,0
2022-09-23T00:55:50.643Z,0
2022-09-23T00:56:53.730Z,0
2022-09-23T00:57:56.806Z,0
2022-09-23T00:58:59.801Z,0
2022-09-23T01:00:02.675Z,0
2022-09-23T01:01:05.913Z,0
2022-09-23T01:02:08.626Z,0
2022-09-23T01:03:11.968Z,0
2022-09-23T01:04:15.420Z,0
2022-09-23T01:05:17.973Z,0
2022-09-23T01:06:21.327Z,0
2022-09-23T01:07:24.832Z,0
2022-09-23T01:08:28.274Z,0
2022-09-23T01:09:31.192Z,0
2022-09-23T01:10:34.068Z,0
2022-09-23T01:11:37.160Z,0
2022-09-23T01:12:39.777Z,0
2022-09-23T01:13:43.137Z,0
2022-09-23T01:14:46.008Z,0
2022-09-23T01:15:48.724Z,0
2022-09-23T01:16:51.914Z,0
2022-09-23T01:17:55.159Z,0
2022-09-23T01:18:58.573Z,0
2022-09-23T01:20:01.084Z,0
2022-09-23T01:21:04.530Z,0
2022-09-23T01:22:07.895Z,0
2022-09-23T01:23:11.812Z,0
2022-09-23T01:24:14.730Z,0
2022-09-23T01:25:18.070Z,0
2022-09-23T01:26:21.026Z,0
2022-09-23T01:27:23.856Z,0
2022-09-23T01:28:26.564Z,0
2022-09-23T01:29:29.531Z,0
2022-09-23T01:30:32.256Z,0
2022-09-23T01:31:36.051Z,0
2022-09-23T01:32:38.864Z,0
2022-09-23T01:33:41.580Z,0
2022-09-23T01:34:44.459Z,0
2022-09-23T01:35:47.187Z,0
2022-09-23T01:36:49.998Z,0
2022-09-23T01:37:52.518Z,0
2022-09-23T01:38:56.337Z,0
2022-09-23T01:40:00.201Z,0
2022-09-23T01:41:03.805Z,0
2022-09-23T01:42:06.325Z,0
2022-09-23T01:43:09.746Z,0
2022-09-23T01:44:12.540Z,0
2022-09-23T01:45:15.329Z,0
2022-09-23T01:46:18.207Z,0
2022-09-23T01:47:21.078Z,0
2022-09-23T01:48:24.113Z,0
2022-09-23T01:49:27.392Z,0
2022-09-23T01:50:30.263Z,0
2022-09-23T01:51:33.256Z,0
2022-09-23T01:52:36.073Z,0
2022-09-23T01:53:39.539Z,0
2022-09-23T01:54:43.326Z,0
2022-09-23T01:55:46.720Z,0
2022-09-23T01:56:49.822Z,0
2022-09-23T01:57:53.177Z,0
2022-09-23T01:58:56.254Z,0
2022-09-23T01:59:59.047Z,0
2022-09-23T02:01:01.424Z,0
2022-09-23T02:02:05.137Z,0
2022-09-23T02:03:09.387Z,0
2022-09-23T02:04:12.826Z,0
2022-09-23T02:05:16.042Z,0
2022-09-23T02:06:19.236Z,0
2022-09-23T02:07:22.031Z,0
2022-09-23T02:08:25.119Z,0
2022-09-23T02:09:28.472Z,0
2022-09-23T02:10:32.365Z,0
2022-09-23T02:11:35.842Z,0
2022-09-23T02:12:38.977Z,0
2022-09-23T02:13:42.228Z,0
2022-09-23T02:14:45.021Z,0
2022-09-23T02:15:48.082Z,0
2022-09-23T02:16:51.838Z,0
2022-09-23T02:17:56.252Z,0
2022-09-23T02:18:59.223Z,0
2022-09-23T02:20:02.513Z,0
2022-09-23T02:21:05.310Z,0
2022-09-23T02:22:08.372Z,0
2022-09-23T02:23:10.885Z,0
2022-09-23T02:24:13.970Z,0
2022-09-23T02:25:17.154Z,0
2022-09-23T02:26:20.739Z,0
2022-09-23T02:27:24.456Z,0
2022-09-23T02:28:27.524Z,0
2022-09-23T02:29:30.602Z,0
2022-09-23T02:30:33.476Z,0
2022-09-23T02:31:36.550Z,0
2022-09-23T02:32:40.250Z,0
2022-09-23T02:33:43.396Z,0
2022-09-23T02:34:46.579Z,0
2022-09-23T02:35:49.922Z,0
2022-09-23T02:36:52.709Z,0
2022-09-23T02:37:55.970Z,0
2022-09-23T02:38:58.956Z,0
2022-09-23T02:40:01.852Z,0
2022-09-23T02:41:04.846Z,0
2022-09-23T02:42:08.654Z,0
2022-09-23T02:43:12.062Z,0
2022-09-23T02:44:15.406Z,0
2022-09-23T02:45:18.547Z,0
2022-09-23T02:46:22.270Z,0
2022-09-23T02:47:25.723Z,0
2022-09-23T02:48:28.501Z,0
2022-09-23T02:49:31.566Z,0
2022-09-23T02:50:34.253Z,0
2022-09-23T02:51:37.038Z,0
2022-09-23T02:52:40.423Z,0
2022-09-23T02:53:43.299Z,0
2022-09-23T02:54:46.478Z,0
2022-09-23T02:55:49.426Z,0
2022-09-23T02:56:52.308Z,0
2022-09-23T02:57:56.365Z,0
2022-09-23T02:59:00.197Z,0
2022-09-23T03:00:03.265Z,0
2022-09-23T03:01:06.247Z,0
2022-09-23T03:02:10.380Z,0
2022-09-23T03:03:13.527Z,0
2022-09-23T03:04:16.592Z,0
2022-09-23T03:05:19.470Z,0
2022-09-23T03:06:22.854Z,0
2022-09-23T03:07:26.315Z,0
2022-09-23T03:08:29.475Z,0
2022-09-23T03:09:32.080Z,0
2022-09-23T03:10:34.953Z,0
2022-09-23T03:11:38.977Z,0
2022-09-23T03:12:42.139Z,0
2022-09-23T03:13:45.406Z,0
2022-09-23T03:14:48.242Z,0
2022-09-23T03:15:51.040Z,0
2022-09-23T03:16:54.245Z,0
2022-09-23T03:17:56.786Z,0
2022-09-23T03:19:00.166Z,0
2022-09-23T03:20:03.300Z,0
2022-09-23T03:21:06.177Z,0
2022-09-23T03:22:09.352Z,0
2022-09-23T03:23:12.315Z,0
2022-09-23T03:24:15.026Z,0
2022-09-23T03:25:18.082Z,0
2022-09-23T03:26:21.076Z,0
2022-09-23T03:27:24.534Z,0
2022-09-23T03:28:28.065Z,0
2022-09-23T03:29:31.850Z,0
2022-09-23T03:30:35.560Z,0
2022-09-23T03:31:38.305Z,0
2022-09-23T03:32:42.191Z,0
2022-09-23T03:33:45.718Z,0
2022-09-23T03:34:48.787Z,0
2022-09-23T03:35:51.928Z,0
2022-09-23T03:36:54.920Z,0
2022-09-23T03:37:58.343Z,0
2022-09-23T03:39:01.254Z,0
2022-09-23T03:40:04.785Z,0
2022-09-23T03:41:08.357Z,0
2022-09-23T03:42:10.610Z,0
2022-09-23T03:43:13.631Z,0
2022-09-23T03:44:16.443Z,0
2022-09-23T03:45:20.079Z,0
2022-09-23T03:46:23.542Z,0
2022-09-23T03:47:27.162Z,0
2022-09-23T03:48:30.502Z,0
2022-09-23T03:49:33.631Z,0
2022-09-23T03:50:36.498Z,0
2022-09-23T03:51:42.717Z,0
2022-09-23T03:52:47.342Z,0
2022-09-23T03:53:49.930Z,0
2022-09-23T03:54:53.096Z,0
2022-09-23T03:55:56.820Z,0
2022-09-23T03:56:59.993Z,0
2022-09-23T03:58:02.793Z,0
2022-09-23T03:59:05.671Z,0
2022-09-23T04:00:09.369Z,0
2022-09-23T04:01:13.407Z,0
2022-09-23T04:02:17.479Z,0
2022-09-23T04:03:21.425Z,0
2022-09-23T04:04:24.330Z,0
2022-09-23T04:05:27.328Z,0
2022-09-23T04:06:30.398Z,0
2022-09-23T04:07:33.882Z,0
2022-09-23T04:08:37.882Z,0
2022-09-23T04:09:40.940Z,0
2022-09-23T04:10:44.029Z,0
2022-09-23T04:11:57.233Z,0
2022-09-23T04:13:00.660Z,0
2022-09-23T04:14:04.082Z,0
2022-09-23T04:15:07.288Z,0
2022-09-23T04:16:10.463Z,0
2022-09-23T04:17:14.301Z,0
2022-09-23T04:18:17.425Z,0
2022-09-23T04:19:20.566Z,0
2022-09-23T04:20:23.441Z,0
2022-09-23T04:21:26.232Z,0
2022-09-23T04:22:28.544Z,0
2022-09-23T04:23:30.699Z,0
2022-09-23T04:24:33.003Z,0
2022-09-23T04:25:35.798Z,0
2022-09-23T04:26:38.733Z,4
2022-09-23T04:27:41.559Z,4
2022-09-23T04:28:44.715Z,0
2022-09-23T04:29:47.853Z,4
2022-09-23T04:30:50.943Z,4
2022-09-23T04:31:53.958Z,4
2022-09-23T04:32:57.998Z,4
2022-09-23T04:34:01.282Z,4
2022-09-23T04:35:04.355Z,8
2022-09-23T04:36:07.607Z,8
2022-09-23T04:37:10.494Z,8
2022-09-23T04:38:13.646Z,12
2022-09-23T04:39:16.600Z,16
2022-09-23T04:40:19.708Z,16
2022-09-23T04:41:22.961Z,24
2022-09-23T04:42:25.672Z,28
2022-09-23T04:43:29.224Z,32
2022-09-23T04:44:32.375Z,36
2022-09-23T04:45:35.460Z,44
2022-09-23T04:46:38.400Z,52
2022-09-23T04:47:42.096Z,60
2022-09-23T04:48:45.885Z,72
2022-09-23T04:49:49.676Z,80
2022-09-23T04:50:53.179Z,84
2022-09-23T04:51:56.048Z,96
2022-09-23T04:52:59.196Z,108
2022-09-23T04:54:02.356Z,124
2022-09-23T04:55:09.167Z,140
2022-09-23T04:56:14.400Z,156
2022-09-23T04:57:17.756Z,172
2022-09-23T04:58:20.541Z,184
2022-09-23T04:59:23.534Z,196
2022-09-23T05:00:26.522Z,208
2022-09-23T05:01:30.027Z,228
2022-09-23T05:02:33.533Z,248
2022-09-23T05:03:36.564Z,268
2022-09-23T05:04:39.513Z,292
2022-09-23T05:05:43.188Z,320
2022-09-23T05:06:45.703Z,344
2022-09-23T05:07:49.157Z,372
2022-09-23T05:08:52.132Z,400
2022-09-23T05:09:54.936Z,428
2022-09-23T05:10:58.050Z,456
2022-09-23T05:12:01.127Z,488
2022-09-23T05:13:03.996Z,520
2022-09-23T05:14:07.127Z,552
2022-09-23T05:15:10.592Z,592
2022-09-23T05:16:13.786Z,632
2022-09-23T05:17:17.474Z,672
2022-09-23T05:18:20.957Z,708
2022-09-23T05:19:24.096Z,748
2022-09-23T05:20:28.055Z,792
2022-09-23T05:21:31.836Z,840
2022-09-23T05:22:34.905Z,872
2022-09-23T05:23:37.716Z,896
2022-09-23T05:24:40.879Z,908
2022-09-23T05:25:43.478Z,904
2022-09-23T05:26:47.173Z,924
2022-09-23T05:27:50.396Z,968
2022-09-23T05:28:53.000Z,1012
2022-09-23T05:29:56.766Z,1076
2022-09-23T05:30:59.652Z,1160
2022-09-23T05:32:03.301Z,1216
2022-09-23T05:33:06.688Z,1260
2022-09-23T05:34:09.528Z,1284
2022-09-23T05:35:12.940Z,1304
2022-09-23T05:36:16.519Z,1352
2022-09-23T05:37:19.840Z,1404
2022-09-23T05:38:22.352Z,1460
2022-09-23T05:39:25.500Z,1532
2022-09-23T05:40:28.141Z,1620
2022-09-23T05:41:31.233Z,1696
2022-09-23T05:42:33.946Z,1776
2022-09-23T05:43:37.052Z,1904
2022-09-23T05:44:40.482Z,1960
2022-09-23T05:45:43.073Z,2004
2022-09-23T05:46:45.952Z,2036
2022-09-23T05:47:48.865Z,2084
2022-09-23T05:48:51.998Z,2124
2022-09-23T05:49:59.865Z,2176
2022-09-23T05:51:03.713Z,2292
2022-09-23T05:52:07.234Z,2452
2022-09-23T05:53:11.130Z,2568
2022-09-23T05:54:13.933Z,2680
2022-09-23T05:55:16.733Z,2832
2022-09-23T05:56:19.458Z,2984
2022-09-23T05:57:22.252Z,3096
2022-09-23T05:58:25.785Z,3144
2022-09-23T05:59:29.218Z,3176
2022-09-23T06:00:32.412Z,3088
2022-09-23T06:01:35.881Z,3044
2022-09-23T06:02:39.311Z,3160
2022-09-23T06:03:42.569Z,3400
2022-09-23T06:04:45.678Z,3768
2022-09-23T06:05:48.620Z,3956
2022-09-23T06:06:51.971Z,4036
2022-09-23T06:07:55.618Z,4104
2022-09-23T06:08:59.457Z,4164
2022-09-23T06:10:02.981Z,4184
2022-09-23T06:11:05.846Z,4168
2022-09-23T06:12:08.477Z,4196
2022-09-23T06:13:11.343Z,4152
2022-09-23T06:14:14.945Z,4128
2022-09-23T06:15:17.990Z,4160
2022-09-23T06:16:21.439Z,4244
2022-09-23T06:17:24.755Z,4376
2022-09-23T06:18:27.844Z,4572
2022-09-23T06:19:30.552Z,4740
2022-09-23T06:20:33.348Z,4812
2022-09-23T06:21:36.585Z,4828
2022-09-23T06:22:40.315Z,4712
2022-09-23T06:23:44.382Z,4584
2022-09-23T06:24:47.505Z,4496
2022-09-23T06:25:50.559Z,4516
2022-09-23T06:26:53.907Z,4652
2022-09-23T06:27:57.003Z,4768
2022-09-23T06:29:00.268Z,4864
2022-09-23T06:30:02.868Z,4968
2022-09-23T06:31:08.563Z,5040
2022-09-23T06:32:16.993Z,5064
2022-09-23T06:33:29.321Z,5080
2022-09-23T06:34:49.044Z,5148
2022-09-23T06:35:59.164Z,5200
2022-09-23T06:37:14.775Z,5244
2022-09-23T06:38:23.561Z,5292
2022-09-23T06:39:27.363Z,5388
2022-09-23T06:40:30.535Z,5444
2022-09-23T06:41:34.625Z,5532
2022-09-23T06:42:37.171Z,5644
2022-09-23T06:43:40.419Z,5836
2022-09-23T06:44:44.065Z,5964
2022-09-23T06:45:47.130Z,6052
2022-09-23T06:46:50.878Z,6084
2022-09-23T06:47:54.035Z,6124
2022-09-23T06:48:57.181Z,6200
2022-09-23T06:50:00.394Z,6232
2022-09-23T06:51:03.179Z,6220
2022-09-23T06:52:05.140Z,6212
2022-09-23T06:53:08.098Z,6228
2022-09-23T06:54:10.865Z,6336
2022-09-23T06:55:14.505Z,6604
2022-09-23T06:56:17.621Z,6844
2022-09-23T06:57:20.724Z,6860
2022-09-23T06:58:23.866Z,6828
2022-09-23T06:59:27.250Z,6696
2022-09-23T07:00:30.503Z,6640
2022-09-23T07:01:33.486Z,6604
2022-09-23T07:02:38.383Z,6668
2022-09-23T07:03:42.465Z,6828
2022-09-23T07:04:46.118Z,7036
2022-09-23T07:05:49.368Z,7220
2022-09-23T07:06:52.431Z,7384
2022-09-23T07:07:55.248Z,7552
2022-09-23T07:08:59.037Z,7724
2022-09-23T07:10:02.333Z,7876
2022-09-23T07:11:06.497Z,8288
2022-09-23T07:12:10.059Z,8784
2022-09-23T07:13:16.233Z,9376
2022-09-23T07:14:20.068Z,9976
2022-09-23T07:15:22.613Z,10456
2022-09-23T07:16:25.781Z,10744
2022-09-23T07:17:29.825Z,10912
2022-09-23T07:18:36.397Z,11188
2022-09-23T07:19:40.451Z,11528
2022-09-23T07:20:42.869Z,11824
2022-09-23T07:21:46.021Z,11944
2022-09-23T07:22:48.260Z,11992
2022-09-23T07:23:51.339Z,12028
2022-09-23T07:24:54.999Z,12028
2022-09-23T07:25:58.270Z,11920
2022-09-23T07:27:02.432Z,11780
2022-09-23T07:28:05.462Z,11660
2022-09-23T07:29:08.529Z,11600
2022-09-23T07:30:21.392Z,11600
2022-09-23T07:31:38.168Z,11816
2022-09-23T07:32:48.492Z,12160
2022-09-23T07:33:52.273Z,12320
2022-09-23T07:34:55.347Z,12420
2022-09-23T07:35:58.131Z,12636
2022-09-23T07:37:00.849Z,12768
2022-09-23T07:38:03.996Z,12840
2022-09-23T07:39:07.482Z,13196
2022-09-23T07:40:11.506Z,13876
2022-09-23T07:41:15.455Z,14736
2022-09-23T07:42:19.317Z,15792
2022-09-23T07:43:23.189Z,16220
2022-09-23T07:44:26.457Z,16772
2022-09-23T07:45:29.262Z,17480
2022-09-23T07:46:32.766Z,17952
2022-09-23T07:47:35.426Z,18592
2022-09-23T07:48:38.506Z,20992
2022-09-23T07:49:41.670Z,20224
2022-09-23T07:50:45.013Z,19968
2022-09-23T07:51:48.744Z,20032
2022-09-23T07:52:51.903Z,20160
2022-09-23T07:53:55.601Z,20480
2022-09-23T07:54:58.487Z,21440
2022-09-23T07:56:01.324Z,22752
2022-09-23T07:57:04.699Z,22560
2022-09-23T07:58:08.291Z,23264
2022-09-23T07:59:11.622Z,24064
2022-09-23T08:00:14.412Z,24256
2022-09-23T08:01:17.638Z,25312
2022-09-23T08:02:21.366Z,24832
2022-09-23T08:03:25.005Z,33376
2022-09-23T08:04:27.719Z,26592
2022-09-23T08:05:30.898Z,28224
2022-09-23T08:06:33.683Z,28448
2022-09-23T08:07:36.227Z,22240
2022-09-23T08:08:39.301Z,22624
2022-09-23T08:09:42.015Z,30304
2022-09-23T08:10:45.078Z,29856
2022-09-23T08:11:48.541Z,23712
2022-09-23T08:12:51.162Z,22080
2022-09-23T08:13:54.995Z,23232
2022-09-23T08:14:58.148Z,29216
2022-09-23T08:16:01.005Z,25536
2022-09-23T08:17:05.498Z,24320
2022-09-23T08:18:08.618Z,33344
2022-09-23T08:19:11.448Z,37792
2022-09-23T08:20:14.329Z,27520
2022-09-23T08:21:17.211Z,29568
2022-09-23T08:22:20.442Z,38976
2022-09-23T08:23:23.275Z,31296
2022-09-23T08:24:26.344Z,30048
2022-09-23T08:25:32.013Z,27520
2022-09-23T08:26:38.035Z,27488
2022-09-23T08:27:41.438Z,32608
2022-09-23T08:28:44.798Z,26400
2022-09-23T08:29:48.788Z,23488
2022-09-23T08:30:52.491Z,22784
2022-09-23T08:31:55.221Z,25632
2022-09-23T08:32:58.008Z,28160
2022-09-23T08:34:00.892Z,26976
2022-09-23T08:35:04.748Z,28736
2022-09-23T08:36:07.834Z,31840
2022-09-23T08:37:10.521Z,27456
2022-09-23T08:38:13.976Z,25888
2022-09-23T08:39:16.864Z,25824
2022-09-23T08:40:20.334Z,27168
2022-09-23T08:41:24.594Z,27520
2022-09-23T08:42:28.021Z,25824
2022-09-23T08:43:31.171Z,25568
2022-09-23T08:44:33.799Z,26048
2022-09-23T08:45:36.763Z,23328
2022-09-23T08:46:40.642Z,23584
2022-09-23T08:47:43.713Z,24960
2022-09-23T08:48:47.176Z,26208
2022-09-23T08:49:49.781Z,27808
2022-09-23T08:50:52.955Z,30784
2022-09-23T08:51:55.546Z,35008
2022-09-23T08:52:59.213Z,36608
2022-09-23T08:54:02.342Z,41056
2022-09-23T08:55:05.575Z,44288
2022-09-23T08:56:08.921Z,44352
2022-09-23T08:57:11.456Z,51776
2022-09-23T08:58:24.772Z,60160
2022-09-23T08:59:30.154Z,50944
2022-09-23T09:00:32.479Z,63328
2022-09-23T09:01:36.456Z,48320
2022-09-23T09:02:39.907Z,47200
2022-09-23T09:03:43.358Z,45888
2022-09-23T09:04:46.537Z,44672
2022-09-23T09:05:54.104Z,51232
2022-09-23T09:07:03.560Z,37984
2022-09-23T09:08:40.917Z,37920
2022-09-23T09:09:44.434Z,36256
2022-09-23T09:10:47.509Z,34528
2022-09-23T09:11:49.834Z,34880
2022-09-23T09:12:52.933Z,34240
2022-09-23T09:13:55.729Z,34144
2022-09-23T09:14:59.163Z,36160
2022-09-23T09:16:02.776Z,37632
2022-09-23T09:17:06.719Z,40256
2022-09-23T09:18:10.774Z,39680
2022-09-23T09:19:14.250Z,41952
2022-09-23T09:20:17.155Z,45344
2022-09-23T09:21:20.778Z,42592
2022-09-23T09:22:23.620Z,48480
2022-09-23T09:23:27.080Z,65824
2022-09-23T09:24:30.745Z,27520
2022-09-23T09:25:34.338Z,32672
2022-09-23T09:26:37.632Z,45696
2022-09-23T09:27:40.151Z,104256
2022-09-23T09:28:42.391Z,51488
2022-09-23T09:29:45.752Z,54368
2022-09-23T09:30:52.150Z,106592
2022-09-23T09:31:55.579Z,54720
2022-09-23T09:32:59.400Z,61568
2022-09-23T09:34:04.204Z,53728
2022-09-23T09:35:07.382Z,72608
2022-09-23T09:36:10.173Z,62304
2022-09-23T09:37:13.032Z,87648
2022-09-23T09:38:16.027Z,74944
2022-09-23T09:39:21.801Z,82784
2022-09-23T09:40:29.340Z,54560
2022-09-23T09:41:32.295Z,82464
2022-09-23T09:42:34.896Z,95392
2022-09-23T09:43:42.073Z,106720
2022-09-23T09:44:46.729Z,99232
2022-09-23T09:45:51.733Z,104096
2022-09-23T09:47:00.476Z,99264
2022-09-23T09:48:04.546Z,97952
2022-09-23T09:49:07.820Z,104512
2022-09-23T09:50:10.804Z,97024
2022-09-23T09:51:13.878Z,103616
2022-09-23T09:52:16.667Z,103648
2022-09-23T09:53:19.134Z,100864
2022-09-23T09:54:22.852Z,105024
2022-09-23T09:55:25.853Z,65568
2022-09-23T09:56:28.364Z,96000
2022-09-23T09:57:33.483Z,55808
2022-09-23T09:58:39.647Z,76544
2022-09-23T09:59:42.461Z,79232
2022-09-23T10:00:45.987Z,58368
2022-09-23T10:01:49.502Z,60896
2022-09-23T10:02:53.342Z,64768
2022-09-23T10:03:59.453Z,68896
2022-09-23T10:05:02.946Z,60064
2022-09-23T10:06:05.630Z,69184
2022-09-23T10:07:08.905Z,103328
2022-09-23T10:08:11.795Z,97888
2022-09-23T10:09:14.890Z,94720
2022-09-23T10:10:31.652Z,107904
2022-09-23T10:11:36.759Z,105440
2022-09-23T10:12:40.136Z,103168
2022-09-23T10:13:43.592Z,104800
2022-09-23T10:14:46.385Z,105952
2022-09-23T10:15:49.097Z,99168
2022-09-23T10:16:52.009Z,107040
2022-09-23T10:17:55.268Z,112224
2022-09-23T10:18:58.427Z,93888
2022-09-23T10:20:02.541Z,101952
2022-09-23T10:21:06.614Z,103872
2022-09-23T10:22:09.839Z,68576
2022-09-23T10:23:12.709Z,114496
2022-09-23T10:24:15.428Z,115616
2022-09-23T10:25:18.892Z,116160
2022-09-23T10:26:21.976Z,118656
2022-09-23T10:27:25.309Z,120000
2022-09-23T10:28:28.643Z,116384
2022-09-23T10:29:31.254Z,113280
2022-09-23T10:30:34.179Z,104224
2022-09-23T10:31:37.090Z,104032
2022-09-23T10:32:40.168Z,106624
2022-09-23T10:33:43.305Z,105664
2022-09-23T10:34:46.660Z,101376
2022-09-23T10:35:50.719Z,94080
2022-09-23T10:36:53.813Z,104608
2022-09-23T10:37:57.271Z,105728
2022-09-23T10:39:00.728Z,104864
2022-09-23T10:40:04.176Z,107904
2022-09-23T10:42:11.694Z,112704
2022-09-23T10:43:13.942Z,117344
2022-09-23T10:44:17.096Z,118784
2022-09-23T10:45:20.187Z,121984
2022-09-23T10:46:23.890Z,123296
2022-09-23T10:47:27.861Z,124064
2022-09-23T10:48:30.940Z,129152
2022-09-23T10:49:34.278Z,127808
2022-09-23T10:50:37.817Z,129376
2022-09-23T10:51:41.084Z,125760
2022-09-23T10:52:44.503Z,120064
2022-09-23T10:53:47.508Z,119264
2022-09-23T10:54:50.495Z,119936
2022-09-23T10:55:53.847Z,113696
2022-09-23T10:58:01.913Z,123392
2022-09-23T10:59:04.710Z,127200
2022-09-23T11:00:07.587Z,126752
2022-09-23T11:01:11.627Z,128000
2022-09-23T11:02:15.224Z,124992
2022-09-23T11:03:18.107Z,123328
2022-09-23T11:04:21.307Z,119872
2022-09-23T11:05:25.006Z,125600
2022-09-23T11:06:28.369Z,97696
2022-09-23T11:07:36.396Z,111296
2022-09-23T11:08:40.498Z,124864
2022-09-23T11:09:43.282Z,122400
2022-09-23T11:10:46.892Z,89760
2022-09-23T11:11:49.982Z,92288
2022-09-23T11:12:52.977Z,111360
2022-09-23T11:13:55.663Z,105312
2022-09-23T11:14:58.649Z,131296
2022-09-23T11:16:01.802Z,124064
2022-09-23T11:17:04.797Z,115712
2022-09-23T11:18:08.041Z,129984
2022-09-23T11:19:11.783Z,122720
2022-09-23T11:20:15.218Z,117920
2022-09-23T11:21:18.604Z,107904
2022-09-23T11:22:22.126Z,102208
2022-09-23T11:23:25.355Z,87712
2022-09-23T11:24:28.401Z,79008
2022-09-23T11:25:31.753Z,78784
2022-09-23T11:26:34.751Z,67008
2022-09-23T11:27:38.242Z,66016
2022-09-23T11:28:41.313Z,70880
2022-09-23T11:29:44.396Z,76544
2022-09-23T11:30:47.573Z,79456
2022-09-23T11:31:50.712Z,81536
2022-09-23T11:33:00.853Z,77632
2022-09-23T11:34:07.637Z,72512
2022-09-23T11:35:11.422Z,54368
2022-09-23T11:36:14.301Z,86144
2022-09-23T11:37:17.536Z,84256
2022-09-23T11:38:20.902Z,79712
2022-09-23T11:39:24.702Z,85024
2022-09-23T11:40:28.145Z,91968
2022-09-23T11:41:32.369Z,98240
2022-09-23T11:42:34.807Z,119392
2022-09-23T11:43:37.588Z,121184
2022-09-23T11:44:40.182Z,121952
2022-09-23T11:45:42.656Z,123392
2022-09-23T11:46:45.974Z,128000
2022-09-23T11:47:48.501Z,129472
2022-09-23T11:48:51.651Z,127776
2022-09-23T11:49:54.532Z,126528
2022-09-23T11:50:58.082Z,122080
2022-09-23T11:52:01.230Z,119360
2022-09-23T11:53:04.103Z,117312
2022-09-23T11:54:07.431Z,115872
2022-09-23T11:55:19.147Z,110880
2022-09-23T11:56:34.515Z,109248
2022-09-23T11:57:51.236Z,107200
2022-09-23T11:58:57.779Z,105824
2022-09-23T12:00:07.827Z,108768
2022-09-23T12:01:10.983Z,108224
2022-09-23T12:02:19.857Z,106400
2022-09-23T12:03:42.755Z,98912
2022-09-23T12:04:56.613Z,95808
2022-09-23T12:06:03.158Z,90336
2022-09-23T12:07:06.260Z,82592
2022-09-23T12:08:09.055Z,72416
2022-09-23T12:09:12.603Z,70688
2022-09-23T12:10:16.114Z,65888
2022-09-23T12:11:19.163Z,80064
2022-09-23T12:12:26.406Z,77440
2022-09-23T12:13:29.996Z,74016
2022-09-23T12:14:33.649Z,71488
2022-09-23T12:15:37.079Z,63808
2022-09-23T12:16:40.535Z,55648
2022-09-23T12:17:44.065Z,50880
2022-09-23T12:18:47.295Z,47264
2022-09-23T12:19:50.469Z,48928
2022-09-23T12:20:53.632Z,50656
2022-09-23T12:21:56.426Z,55328
2022-09-23T12:22:59.854Z,51712
2022-09-23T12:24:03.858Z,52352
2022-09-23T12:25:07.341Z,50816
2022-09-23T12:26:10.859Z,52800
2022-09-23T12:27:13.848Z,38688
2022-09-23T12:28:17.148Z,49600
2022-09-23T12:29:20.044Z,34240
2022-09-23T12:30:23.515Z,31936
2022-09-23T12:31:26.658Z,31968
2022-09-23T12:32:29.530Z,33056
2022-09-23T12:33:32.974Z,30432
2022-09-23T12:34:35.862Z,30400
2022-09-23T12:35:38.668Z,29856
2022-09-23T12:36:41.901Z,28512
2022-09-23T12:37:45.669Z,30464
2022-09-23T12:38:48.496Z,26880
2022-09-23T12:39:51.683Z,27872
2022-09-23T12:40:55.178Z,27936
2022-09-23T12:41:59.313Z,26848
2022-09-23T12:43:03.047Z,28992
2022-09-23T12:44:06.733Z,27360
2022-09-23T12:45:09.660Z,30880
2022-09-23T12:46:12.648Z,27968
2022-09-23T12:47:16.119Z,29312
2022-09-23T12:48:19.848Z,28672
2022-09-23T12:49:23.105Z,26720
2022-09-23T12:50:26.472Z,25760
2022-09-23T12:51:29.003Z,25632
2022-09-23T12:52:31.969Z,25280
2022-09-23T12:53:34.762Z,24960
2022-09-23T12:54:37.383Z,24640
2022-09-23T12:55:40.494Z,24288
2022-09-23T12:56:44.127Z,24160
2022-09-23T12:57:47.347Z,24160
2022-09-23T12:58:50.478Z,23680
2022-09-23T12:59:54.089Z,23552
2022-09-23T13:00:57.669Z,23296
2022-09-23T13:02:02.129Z,23136
2022-09-23T13:03:05.797Z,23840
2022-09-23T13:04:08.399Z,22752
2022-09-23T13:05:12.151Z,23104
2022-09-23T13:06:14.980Z,22944
2022-09-23T13:07:17.599Z,21952
2022-09-23T13:08:20.791Z,26528
2022-09-23T13:09:24.257Z,21216
2022-09-23T13:10:27.410Z,25280
2022-09-23T13:11:29.936Z,21760
2022-09-23T13:12:33.610Z,21440
2022-09-23T13:13:37.410Z,21344
2022-09-23T13:14:40.989Z,20320
2022-09-23T13:15:43.867Z,22880
2022-09-23T13:16:47.114Z,22720
2022-09-23T13:17:51.100Z,20512
2022-09-23T13:18:53.821Z,20576
2022-09-23T13:19:56.747Z,20800
2022-09-23T13:20:59.901Z,20768
2022-09-23T13:22:03.253Z,20864
2022-09-23T13:23:06.046Z,20448
2022-09-23T13:24:09.461Z,19936
2022-09-23T13:25:12.402Z,19744
2022-09-23T13:26:15.394Z,19616
2022-09-23T13:27:18.572Z,19616
2022-09-23T13:28:21.819Z,19424
2022-09-23T13:29:25.095Z,18976
2022-09-23T13:30:27.600Z,18816
2022-09-23T13:31:30.857Z,18752
2022-09-23T13:32:35.625Z,18304
2022-09-23T13:33:39.709Z,17932
2022-09-23T13:34:42.544Z,17448
2022-09-23T13:35:45.776Z,17444
2022-09-23T13:36:48.295Z,16796
2022-09-23T13:37:51.115Z,16580
2022-09-23T13:38:54.093Z,16424
2022-09-23T13:39:56.847Z,16260
2022-09-23T13:40:59.509Z,16152
2022-09-23T13:42:02.237Z,16028
2022-09-23T13:43:05.125Z,15860
2022-09-23T13:44:08.381Z,15676
2022-09-23T13:45:12.367Z,15484
2022-09-23T13:46:15.595Z,15300
2022-09-23T13:47:19.239Z,15144
2022-09-23T13:48:21.974Z,15020
2022-09-23T13:49:25.055Z,14912
2022-09-23T13:50:31.598Z,14872
2022-09-23T13:51:38.290Z,14876
2022-09-23T13:52:41.661Z,14912
2022-09-23T13:53:44.659Z,14948
2022-09-23T13:54:47.736Z,14952
2022-09-23T13:55:52.517Z,14876
2022-09-23T13:56:56.363Z,14836
2022-09-23T13:57:59.602Z,14828
2022-09-23T13:59:02.804Z,14844
2022-09-23T14:00:05.885Z,14852
2022-09-23T14:01:10.278Z,14884
2022-09-23T14:02:13.779Z,14836
2022-09-23T14:03:18.366Z,14936
2022-09-23T14:04:21.432Z,14876
2022-09-23T14:05:23.869Z,14932
2022-09-23T14:06:27.679Z,14908
2022-09-23T14:07:31.057Z,14832
2022-09-23T14:08:34.600Z,14812
2022-09-23T14:09:37.209Z,14748
2022-09-23T14:10:40.170Z,14688
2022-09-23T14:11:43.620Z,14560
2022-09-23T14:12:47.034Z,14384
2022-09-23T14:13:50.099Z,14220
2022-09-23T14:14:53.099Z,14052
2022-09-23T14:15:55.924Z,13796
2022-09-23T14:17:00.568Z,13600
2022-09-23T14:18:04.027Z,13464
2022-09-23T14:19:07.476Z,13300
2022-09-23T14:20:10.587Z,13128
2022-09-23T14:21:12.839Z,12936